createdAt,value
2023-06-29T00:01:55.617Z,17.85
2023-06-29T00:04:26.802Z,18.00
2023-06-29T00:06:55.141Z,18.70
2023-06-29T00:09:23.097Z,18.60
2023-06-29T00:11:49.819Z,17.48
2023-06-29T00:14:16.527Z,20.20
2023-06-29T00:16:43.192Z,19.40
2023-06-29T00:19:09.735Z,19.30
2023-06-29T00:21:36.221Z,19.48
2023-06-29T00:24:03.766Z,20.92
2023-06-29T00:26:30.408Z,18.48
2023-06-29T00:28:57.698Z,17.98
2023-06-29T00:31:25.616Z,20.77
2023-06-29T00:33:52.347Z,19.95
2023-06-29T00:36:19.503Z,17.55
2023-06-29T00:38:46.050Z,21.17
2023-06-29T00:41:12.580Z,21.25
2023-06-29T00:43:39.133Z,19.95
2023-06-29T00:46:09.172Z,21.50
2023-06-29T00:48:39.076Z,20.83
2023-06-29T00:51:06.217Z,18.00
2023-06-29T00:53:32.930Z,20.30
2023-06-29T00:56:03.683Z,18.45
2023-06-29T00:58:30.767Z,20.42
2023-06-29T01:00:58.850Z,19.40
2023-06-29T01:03:25.631Z,20.67
2023-06-29T01:05:57.492Z,21.15
2023-06-29T01:08:30.342Z,19.50
2023-06-29T01:10:59.563Z,19.67
2023-06-29T01:13:28.385Z,18.13
2023-06-29T01:15:55.180Z,20.80
2023-06-29T01:18:25.204Z,20.33
2023-06-29T01:20:52.972Z,22.13
2023-06-29T01:23:30.191Z,20.98
2023-06-29T01:25:57.578Z,19.35
2023-06-29T01:28:24.072Z,20.20
2023-06-29T01:30:50.709Z,19.88
2023-06-29T01:33:19.993Z,21.05
2023-06-29T01:35:47.228Z,19.63
2023-06-29T01:38:23.485Z,22.45
2023-06-29T01:40:50.661Z,20.23
2023-06-29T01:43:19.159Z,21.17
2023-06-29T01:45:47.648Z,22.50
2023-06-29T01:48:15.095Z,22.88
2023-06-29T01:50:41.784Z,20.98
2023-06-29T01:53:08.407Z,20.77
2023-06-29T01:55:37.740Z,21.75
2023-06-29T01:58:04.453Z,21.52
2023-06-29T02:00:30.965Z,26.15
2023-06-29T02:02:57.669Z,20.08
2023-06-29T02:05:24.340Z,20.65
2023-06-29T02:07:51.177Z,21.35
2023-06-29T02:10:17.695Z,22.00
2023-06-29T02:12:44.262Z,22.58
2023-06-29T02:15:11.191Z,21.35
2023-06-29T02:17:37.972Z,24.38
2023-06-29T02:20:04.947Z,21.58
2023-06-29T02:22:31.439Z,23.67
2023-06-29T02:24:57.915Z,25.27
2023-06-29T02:27:24.556Z,21.65
2023-06-29T02:29:51.002Z,23.90
2023-06-29T02:32:17.454Z,21.65
2023-06-29T02:34:43.878Z,24.27
2023-06-29T02:37:10.470Z,23.10
2023-06-29T02:39:36.939Z,23.13
2023-06-29T02:42:03.521Z,22.80
2023-06-29T02:44:29.919Z,24.63
2023-06-29T02:46:56.557Z,23.77
2023-06-29T02:49:22.980Z,26.55
2023-06-29T02:51:49.461Z,25.83
2023-06-29T02:54:15.985Z,24.27
2023-06-29T02:56:42.585Z,25.65
2023-06-29T02:59:09.013Z,25.30
2023-06-29T03:01:35.583Z,23.45
2023-06-29T03:04:02.194Z,21.42
2023-06-29T03:06:28.752Z,24.90
2023-06-29T03:08:55.237Z,26.75
2023-06-29T03:11:21.679Z,25.63
2023-06-29T03:13:51.093Z,23.55
2023-06-29T03:16:18.132Z,27.52
2023-06-29T03:18:44.642Z,26.83
2023-06-29T03:21:17.946Z,22.95
2023-06-29T03:23:45.319Z,26.00
2023-06-29T03:26:11.889Z,21.42
2023-06-29T03:28:38.527Z,22.70
2023-06-29T03:31:05.002Z,25.30
2023-06-29T03:33:31.563Z,29.25
2023-06-29T03:35:58.292Z,25.80
2023-06-29T03:38:24.777Z,26.55
2023-06-29T03:40:51.259Z,26.35
2023-06-29T03:43:17.727Z,28.77
2023-06-29T03:45:44.581Z,28.05
2023-06-29T03:48:11.428Z,26.48
2023-06-29T03:50:37.989Z,25.30
2023-06-29T03:53:04.557Z,25.42
2023-06-29T03:55:31.042Z,24.30
2023-06-29T03:57:58.925Z,26.55
2023-06-29T04:00:25.477Z,23.73
2023-06-29T04:02:52.067Z,26.58
2023-06-29T04:05:18.726Z,25.85
2023-06-29T04:07:45.306Z,28.65
2023-06-29T04:10:11.814Z,27.20
2023-06-29T04:12:39.727Z,26.67
2023-06-29T04:15:06.905Z,25.88
2023-06-29T04:17:33.532Z,24.48
2023-06-29T04:20:00.055Z,27.58
2023-06-29T04:22:26.534Z,28.25
2023-06-29T04:24:53.403Z,27.75
2023-06-29T04:27:20.034Z,27.60
2023-06-29T04:29:46.633Z,26.58
2023-06-29T04:32:13.254Z,26.30
2023-06-29T04:34:39.748Z,26.25
2023-06-29T04:37:07.572Z,28.88
2023-06-29T04:39:34.165Z,27.92
2023-06-29T04:42:04.017Z,25.48
2023-06-29T04:44:33.544Z,28.83
2023-06-29T04:47:04.454Z,26.33
2023-06-29T04:49:37.750Z,28.15
2023-06-29T04:52:05.490Z,29.17
2023-06-29T04:54:32.074Z,28.38
2023-06-29T04:57:00.439Z,28.13
2023-06-29T04:59:29.772Z,29.95
2023-06-29T05:01:56.354Z,24.27
2023-06-29T05:04:22.985Z,28.27
2023-06-29T05:06:49.660Z,31.02
2023-06-29T05:09:16.973Z,29.60
2023-06-29T05:11:44.064Z,27.17
2023-06-29T05:14:10.936Z,27.90
2023-06-29T05:16:37.861Z,27.35
2023-06-29T05:19:05.246Z,31.85
2023-06-29T05:21:31.980Z,26.63
2023-06-29T05:23:58.500Z,29.92
2023-06-29T05:26:25.101Z,27.98
2023-06-29T05:29:04.332Z,28.98
2023-06-29T05:31:32.648Z,29.67
2023-06-29T05:33:59.174Z,32.78
2023-06-29T05:36:25.704Z,27.83
2023-06-29T05:38:52.210Z,26.90
2023-06-29T05:41:18.989Z,27.67
2023-06-29T05:43:45.429Z,29.73
2023-06-29T05:46:12.091Z,28.73
2023-06-29T05:48:38.598Z,28.63
2023-06-29T05:51:05.149Z,26.67
2023-06-29T05:53:32.709Z,28.27
2023-06-29T05:55:59.388Z,29.00
2023-06-29T05:58:25.914Z,26.10
2023-06-29T06:00:52.847Z,28.58
2023-06-29T06:03:21.053Z,27.60
2023-06-29T06:05:47.633Z,29.58
2023-06-29T06:08:15.843Z,27.50
2023-06-29T06:10:43.012Z,31.55
2023-06-29T06:13:10.406Z,31.80
2023-06-29T06:15:36.858Z,28.45
2023-06-29T06:18:03.633Z,30.45
2023-06-29T06:20:30.266Z,32.28
2023-06-29T06:22:56.805Z,31.92
2023-06-29T06:25:23.289Z,29.52
2023-06-29T06:27:50.123Z,28.85
2023-06-29T06:30:16.738Z,30.42
2023-06-29T06:32:43.328Z,29.48
2023-06-29T06:35:10.297Z,30.13
2023-06-29T06:37:37.895Z,28.35
2023-06-29T06:40:14.163Z,30.25
2023-06-29T06:42:40.743Z,30.13
2023-06-29T06:45:08.033Z,30.35
2023-06-29T06:47:36.744Z,29.90
2023-06-29T06:50:05.023Z,30.88
2023-06-29T06:52:31.754Z,26.75
2023-06-29T06:54:58.436Z,29.38
2023-06-29T06:57:25.611Z,29.80
2023-06-29T06:59:52.363Z,26.95
2023-06-29T07:02:19.138Z,28.40
2023-06-29T07:04:45.851Z,29.10
2023-06-29T07:07:12.559Z,27.70
2023-06-29T07:09:39.915Z,27.15
2023-06-29T07:12:07.565Z,29.38
2023-06-29T07:14:34.109Z,30.15
2023-06-29T07:17:00.769Z,29.95
2023-06-29T07:24:26.694Z,29.17
2023-06-29T07:26:53.340Z,32.38
2023-06-29T07:29:19.866Z,28.30
2023-06-29T07:31:47.073Z,27.13
2023-06-29T07:34:13.610Z,28.85
2023-06-29T07:36:40.393Z,28.52
2023-06-29T07:39:06.909Z,31.20
2023-06-29T07:41:33.465Z,28.35
2023-06-29T07:44:01.134Z,29.85
2023-06-29T07:46:27.865Z,26.40
2023-06-29T07:48:55.765Z,28.90
2023-06-29T07:51:22.969Z,27.27
2023-06-29T07:53:51.270Z,31.85
2023-06-29T07:56:18.374Z,29.80
2023-06-29T07:58:45.606Z,27.67
2023-06-29T08:01:12.235Z,28.23
2023-06-29T08:03:56.027Z,29.58
2023-06-29T08:08:54.813Z,26.60
2023-06-29T08:11:22.351Z,27.50
2023-06-29T08:13:48.852Z,28.00
2023-06-29T08:16:15.811Z,27.23
2023-06-29T08:18:42.559Z,29.67
2023-06-29T08:21:11.862Z,28.05
2023-06-29T08:23:38.580Z,31.05
2023-06-29T08:26:05.680Z,28.65
2023-06-29T08:28:32.404Z,28.08
2023-06-29T08:30:58.893Z,29.40
2023-06-29T08:33:25.569Z,27.95
2023-06-29T08:35:52.716Z,30.90
2023-06-29T08:38:19.354Z,30.02
2023-06-29T08:40:50.307Z,29.73
2023-06-29T08:43:18.775Z,31.08
2023-06-29T08:45:46.356Z,32.25
2023-06-29T08:48:13.867Z,28.67
2023-06-29T08:50:46.791Z,34.92
2023-06-29T08:53:14.865Z,29.58
2023-06-29T08:55:43.100Z,31.17
2023-06-29T08:58:09.877Z,29.85
2023-06-29T09:00:38.608Z,30.73
2023-06-29T09:03:05.245Z,27.42
2023-06-29T09:05:33.659Z,29.88
2023-06-29T09:08:00.325Z,27.08
2023-06-29T09:10:26.954Z,29.33
2023-06-29T09:12:54.211Z,29.13
2023-06-29T09:15:21.524Z,29.40
2023-06-29T09:17:55.639Z,27.17
2023-06-29T09:20:22.982Z,29.00
2023-06-29T09:22:53.378Z,27.48
2023-06-29T09:25:33.213Z,31.85
2023-06-29T09:28:09.036Z,26.38
2023-06-29T09:30:38.576Z,29.35
2023-06-29T09:33:07.684Z,31.00
2023-06-29T09:35:35.363Z,30.23
2023-06-29T09:38:04.788Z,27.02
2023-06-29T09:40:31.437Z,28.73
2023-06-29T09:43:02.567Z,26.45
2023-06-29T09:45:31.512Z,25.73
2023-06-29T09:52:56.422Z,29.50
2023-06-29T09:55:30.768Z,29.60
2023-06-29T09:57:58.510Z,27.40
2023-06-29T10:00:25.093Z,26.20
2023-06-29T10:02:51.755Z,23.65
2023-06-29T10:05:18.246Z,24.38
2023-06-29T10:07:45.054Z,25.10
2023-06-29T10:10:16.122Z,23.50
2023-06-29T10:12:42.625Z,25.70
2023-06-29T10:15:10.737Z,23.85
2023-06-29T10:18:10.309Z,24.02
2023-06-29T10:20:39.225Z,27.85
2023-06-29T10:23:08.145Z,25.65
2023-06-29T10:25:38.127Z,25.08
2023-06-29T10:28:05.881Z,24.83
2023-06-29T10:30:46.993Z,25.08
2023-06-29T10:33:14.123Z,24.92
2023-06-29T10:35:41.746Z,25.85
2023-06-29T10:38:13.444Z,26.05
2023-06-29T10:40:48.233Z,26.23
2023-06-29T10:43:14.868Z,25.65
2023-06-29T10:45:41.845Z,24.73
2023-06-29T10:48:10.977Z,22.45
2023-06-29T10:50:40.796Z,25.13
2023-06-29T10:53:10.451Z,21.95
2023-06-29T10:55:53.367Z,25.50
2023-06-29T10:58:37.660Z,24.08
2023-06-29T11:01:04.152Z,24.83
2023-06-29T11:03:30.954Z,22.83
2023-06-29T11:05:59.506Z,27.40
2023-06-29T11:08:26.087Z,21.88
2023-06-29T11:10:52.992Z,22.25
2023-06-29T11:13:20.797Z,24.27
2023-06-29T11:15:56.231Z,22.23
2023-06-29T11:18:23.483Z,22.30
2023-06-29T11:20:49.937Z,22.92
2023-06-29T11:23:19.278Z,22.92
2023-06-29T11:25:45.786Z,26.10
2023-06-29T11:28:15.791Z,26.48
2023-06-29T11:30:42.966Z,23.02
2023-06-29T11:33:24.361Z,24.60
2023-06-29T11:35:58.588Z,24.33
2023-06-29T11:38:25.142Z,24.48
2023-06-29T11:41:06.084Z,24.75
2023-06-29T11:43:33.296Z,26.20
2023-06-29T11:46:00.257Z,24.10
2023-06-29T11:48:27.711Z,28.48
2023-06-29T11:50:58.257Z,25.88
2023-06-29T11:53:25.043Z,22.27
2023-06-29T11:55:52.398Z,23.75
2023-06-29T11:58:18.978Z,24.40
2023-06-29T12:00:45.509Z,25.70
2023-06-29T12:03:12.324Z,25.42
2023-06-29T12:05:43.488Z,24.30
2023-06-29T12:08:11.271Z,26.27
2023-06-29T12:10:40.049Z,25.50
2023-06-29T12:13:10.651Z,25.33
2023-06-29T12:15:37.197Z,24.00
2023-06-29T12:18:14.234Z,25.05
2023-06-29T12:20:47.359Z,23.73
2023-06-29T12:23:15.334Z,23.88
2023-06-29T12:25:47.393Z,23.25
2023-06-29T12:28:14.967Z,23.23
2023-06-29T12:30:41.589Z,23.70
2023-06-29T12:33:09.474Z,22.50
2023-06-29T12:35:36.112Z,24.08
2023-06-29T12:38:03.306Z,22.63
2023-06-29T12:40:32.012Z,24.85
2023-06-29T12:43:01.220Z,21.42
2023-06-29T12:45:28.422Z,22.40
2023-06-29T12:47:55.123Z,20.10
2023-06-29T12:50:21.604Z,21.70
2023-06-29T12:52:49.288Z,21.48
2023-06-29T12:55:16.381Z,23.20
2023-06-29T12:57:44.630Z,21.25
2023-06-29T13:00:11.786Z,19.92
2023-06-29T13:02:38.440Z,19.88
2023-06-29T13:05:05.369Z,18.23
2023-06-29T13:07:32.147Z,18.58
2023-06-29T13:09:59.475Z,17.85
2023-06-29T13:12:27.728Z,18.60
2023-06-29T13:14:54.238Z,17.58
2023-06-29T13:17:21.124Z,17.83
2023-06-29T13:19:49.194Z,16.17
2023-06-29T13:22:19.402Z,17.33
2023-06-29T13:24:47.820Z,17.92
2023-06-29T13:27:14.753Z,16.70
2023-06-29T13:29:41.330Z,18.25
2023-06-29T13:32:08.598Z,16.52
2023-06-29T13:34:35.473Z,18.33
2023-06-29T13:37:02.438Z,17.67
2023-06-29T13:39:29.875Z,17.10
2023-06-29T13:41:56.497Z,20.08
2023-06-29T13:44:23.156Z,19.48
2023-06-29T13:46:49.756Z,17.48
2023-06-29T13:49:16.652Z,15.52
2023-06-29T13:51:43.485Z,16.15
2023-06-29T13:54:10.205Z,16.88
2023-06-29T13:56:38.816Z,15.07
2023-06-29T13:59:09.642Z,15.75
2023-06-29T14:01:41.457Z,17.50
2023-06-29T14:04:10.835Z,17.58
2023-06-29T14:06:40.527Z,16.98
2023-06-29T14:09:08.614Z,16.77
2023-06-29T14:11:35.154Z,16.98
2023-06-29T14:14:01.741Z,16.42
2023-06-29T14:16:30.155Z,17.67
2023-06-29T14:18:58.173Z,17.45
2023-06-29T14:21:24.943Z,17.30
2023-06-29T14:23:51.558Z,17.38
2023-06-29T14:26:18.244Z,17.63
2023-06-29T14:28:44.745Z,15.77
2023-06-29T14:31:11.405Z,15.98
2023-06-29T14:33:38.389Z,16.48
2023-06-29T14:36:06.374Z,20.45
2023-06-29T14:38:33.068Z,16.48
2023-06-29T14:40:59.954Z,16.63
2023-06-29T14:43:26.545Z,17.70
2023-06-29T14:45:54.270Z,16.92
2023-06-29T14:48:20.966Z,18.10
2023-06-29T14:50:49.376Z,19.27
2023-06-29T14:53:16.696Z,18.98
2023-06-29T14:55:44.586Z,18.83
2023-06-29T14:58:11.715Z,18.65
2023-06-29T15:00:38.338Z,18.58
2023-06-29T15:03:05.607Z,19.92
2023-06-29T15:05:32.285Z,21.60
2023-06-29T15:07:59.191Z,22.77
2023-06-29T15:10:25.727Z,21.63
2023-06-29T15:12:52.265Z,19.42
2023-06-29T15:15:18.961Z,22.55
2023-06-29T15:17:45.577Z,20.75
2023-06-29T15:20:12.484Z,21.20
2023-06-29T15:22:39.005Z,19.85
2023-06-29T15:25:06.195Z,20.60
2023-06-29T15:27:32.956Z,15.63
2023-06-29T15:30:02.625Z,14.55
2023-06-29T15:32:29.112Z,12.55
2023-06-29T15:34:55.655Z,11.00
2023-06-29T15:37:22.151Z,10.18
2023-06-29T15:39:48.693Z,11.85
2023-06-29T15:42:16.522Z,10.85
2023-06-29T15:44:43.330Z,11.00
2023-06-29T15:47:09.852Z,9.60
2023-06-29T15:49:36.935Z,7.65
2023-06-29T15:52:04.252Z,7.78
2023-06-29T15:54:30.787Z,7.38
2023-06-29T15:56:57.459Z,6.47
2023-06-29T15:59:23.989Z,5.70
2023-06-29T16:01:51.798Z,5.95
2023-06-29T16:04:19.482Z,6.22
2023-06-29T16:06:46.689Z,5.82
2023-06-29T16:09:13.315Z,6.55
2023-06-29T16:11:39.956Z,5.88
2023-06-29T16:14:06.838Z,5.22
2023-06-29T16:16:33.539Z,7.15
2023-06-29T16:19:00.037Z,5.05
2023-06-29T16:21:28.885Z,5.43
2023-06-29T16:23:55.464Z,2.83
2023-06-29T16:26:22.040Z,3.80
2023-06-29T16:28:48.501Z,2.92
2023-06-29T16:31:15.354Z,3.53
2023-06-29T16:33:41.993Z,2.67
2023-06-29T16:36:08.896Z,1.75
2023-06-29T16:38:35.368Z,2.00
2023-06-29T16:41:01.842Z,2.60
2023-06-29T16:43:28.236Z,2.80
2023-06-29T16:45:54.938Z,3.38
2023-06-29T16:48:21.730Z,2.05
2023-06-29T16:50:48.344Z,2.38
2023-06-29T16:53:14.910Z,1.80
2023-06-29T16:55:41.348Z,3.67
2023-06-29T16:58:07.895Z,2.25
2023-06-29T17:00:34.412Z,1.60
2023-06-29T17:03:01.535Z,1.17
2023-06-29T17:05:28.128Z,1.77
2023-06-29T17:07:57.010Z,1.50
2023-06-29T17:10:23.886Z,2.03
2023-06-29T17:12:50.420Z,2.63
2023-06-29T17:15:17.126Z,3.10
2023-06-29T17:17:43.972Z,3.72
2023-06-29T17:20:11.289Z,1.88
2023-06-29T17:22:37.710Z,1.90
2023-06-29T17:25:04.462Z,3.45
2023-06-29T17:27:31.263Z,3.75
2023-06-29T17:29:57.816Z,3.45
2023-06-29T17:32:24.411Z,1.65
2023-06-29T17:34:50.940Z,2.65
2023-06-29T17:37:18.277Z,1.58
2023-06-29T17:39:44.805Z,1.83
2023-06-29T17:42:22.663Z,1.48
2023-06-29T17:44:49.769Z,3.20
2023-06-29T17:47:16.864Z,1.23
2023-06-29T17:49:44.253Z,1.98
2023-06-29T17:52:11.012Z,3.20
2023-06-29T17:54:39.095Z,2.55
2023-06-29T17:57:07.365Z,3.20
2023-06-29T17:59:35.522Z,2.70
2023-06-29T18:02:02.183Z,2.40
2023-06-29T18:04:31.703Z,3.65
2023-06-29T18:07:00.731Z,3.15
2023-06-29T18:09:27.626Z,4.43
2023-06-29T18:11:55.853Z,4.70
2023-06-29T18:14:22.384Z,3.88
2023-06-29T18:16:49.023Z,4.95
2023-06-29T18:19:15.706Z,5.28
2023-06-29T18:21:43.608Z,4.28
2023-06-29T18:24:10.211Z,3.00
2023-06-29T18:26:37.126Z,4.47
2023-06-29T18:29:03.874Z,4.55
2023-06-29T18:31:30.470Z,7.00
2023-06-29T18:33:57.393Z,5.78
2023-06-29T18:36:24.178Z,7.07
2023-06-29T18:38:51.064Z,6.45
2023-06-29T18:41:46.959Z,6.88
2023-06-29T18:44:16.082Z,5.35
2023-06-29T18:47:09.871Z,7.63
2023-06-29T18:49:50.646Z,10.90
2023-06-29T18:52:19.931Z,4.10
2023-06-29T18:54:46.813Z,8.18
2023-06-29T18:57:13.460Z,4.15
2023-06-29T18:59:40.097Z,4.10
2023-06-29T19:02:06.940Z,4.60
2023-06-29T19:04:33.659Z,5.57
2023-06-29T19:07:00.547Z,4.35
2023-06-29T19:09:28.879Z,3.03
2023-06-29T19:11:57.176Z,4.68
2023-06-29T19:14:23.733Z,3.75
2023-06-29T19:16:50.362Z,4.95
2023-06-29T19:19:17.182Z,4.93
2023-06-29T19:21:48.940Z,5.82
2023-06-29T19:24:16.689Z,5.57
2023-06-29T19:26:43.804Z,4.80
2023-06-29T19:29:11.746Z,3.55
2023-06-29T19:31:38.974Z,6.18
2023-06-29T19:34:06.963Z,5.80
2023-06-29T19:36:34.033Z,5.55
2023-06-29T19:39:00.849Z,3.80
2023-06-29T19:41:27.383Z,4.55
2023-06-29T19:43:53.908Z,4.25
2023-06-29T19:46:20.670Z,4.32
2023-06-29T19:48:47.706Z,5.75
2023-06-29T19:51:14.248Z,4.70
2023-06-29T19:53:41.935Z,3.53
2023-06-29T19:56:08.585Z,4.15
2023-06-29T19:58:35.135Z,4.00
2023-06-29T20:01:01.603Z,3.75
2023-06-29T20:03:28.205Z,4.68
2023-06-29T20:05:55.761Z,3.22
2023-06-29T20:08:22.235Z,4.57
2023-06-29T20:10:49.708Z,5.30
2023-06-29T20:13:16.327Z,4.63
2023-06-29T20:15:42.868Z,4.72
2023-06-29T20:18:09.993Z,4.07
2023-06-29T20:20:36.653Z,9.82
2023-06-29T20:23:03.178Z,5.15
2023-06-29T20:25:29.635Z,7.47
2023-06-29T20:27:56.436Z,7.93
2023-06-29T20:30:23.309Z,8.73
2023-06-29T20:32:49.897Z,4.85
2023-06-29T20:35:16.481Z,7.10
2023-06-29T20:37:43.180Z,7.68
2023-06-29T20:40:10.117Z,6.88
2023-06-29T20:42:38.671Z,7.18
2023-06-29T20:45:06.583Z,6.35
2023-06-29T20:47:33.211Z,7.93
2023-06-29T20:49:59.953Z,8.35
2023-06-29T20:52:26.430Z,7.47
2023-06-29T20:54:52.932Z,7.57
2023-06-29T20:57:23.367Z,8.88
2023-06-29T20:59:50.203Z,7.88
2023-06-29T21:02:18.583Z,6.45
2023-06-29T21:04:45.557Z,5.97
2023-06-29T21:07:12.553Z,5.80
2023-06-29T21:09:39.508Z,4.97
2023-06-29T21:12:06.574Z,6.15
2023-06-29T21:14:33.363Z,5.53
2023-06-29T21:17:00.199Z,10.88
2023-06-29T21:19:26.896Z,5.07
2023-06-29T21:21:53.640Z,4.60
2023-06-29T21:24:20.274Z,4.68
2023-06-29T21:26:46.946Z,5.43
2023-06-29T21:29:33.320Z,5.97
2023-06-29T21:32:03.989Z,8.35
2023-06-29T21:34:31.328Z,9.05
2023-06-29T21:36:58.472Z,5.93
2023-06-29T21:39:24.964Z,7.32
2023-06-29T21:41:51.446Z,7.03
2023-06-29T21:44:18.055Z,8.27
2023-06-29T21:46:44.729Z,7.35
2023-06-29T21:49:11.446Z,5.93
2023-06-29T21:51:38.285Z,5.60
2023-06-29T21:54:05.581Z,5.55
2023-06-29T21:56:32.155Z,6.90
2023-06-29T21:58:58.665Z,8.35
2023-06-29T22:01:25.189Z,7.75
2023-06-29T22:06:21.283Z,6.50
2023-06-29T22:08:49.848Z,6.38
2023-06-29T22:11:16.452Z,6.28
2023-06-29T22:13:44.739Z,6.50
2023-06-29T22:16:11.427Z,6.38
2023-06-29T22:18:37.953Z,6.65
2023-06-29T22:21:05.453Z,6.55
2023-06-29T22:23:31.926Z,7.25
2023-06-29T22:25:58.527Z,6.88
2023-06-29T22:28:25.036Z,5.78
2023-06-29T22:30:51.610Z,8.52
2023-06-29T22:33:18.187Z,7.05
2023-06-29T22:35:46.148Z,7.85
2023-06-29T22:38:12.884Z,4.03
2023-06-29T22:40:39.350Z,5.82
2023-06-29T22:43:05.776Z,5.63
2023-06-29T22:45:32.330Z,7.22
2023-06-29T22:47:59.598Z,7.55
2023-06-29T22:50:26.270Z,8.10
2023-06-29T22:52:52.855Z,6.05
2023-06-29T22:55:19.451Z,6.22
2023-06-29T22:57:46.726Z,9.57
2023-06-29T23:00:13.601Z,6.28
2023-06-29T23:02:40.437Z,7.97
2023-06-29T23:05:07.660Z,8.15
2023-06-29T23:07:34.581Z,9.35
2023-06-29T23:10:01.171Z,5.40
2023-06-29T23:12:27.662Z,8.10
2023-06-29T23:14:55.912Z,6.97
2023-06-29T23:17:26.808Z,7.60
2023-06-29T23:19:53.463Z,6.28
2023-06-29T23:22:20.034Z,6.72
2023-06-29T23:24:46.669Z,5.97
2023-06-29T23:27:13.781Z,8.82
2023-06-29T23:29:40.280Z,6.30
2023-06-29T23:32:08.518Z,8.35
2023-06-29T23:34:35.372Z,9.77
2023-06-29T23:37:02.011Z,6.45
2023-06-29T23:39:28.863Z,9.65
2023-06-29T23:41:55.493Z,6.75
2023-06-29T23:44:21.952Z,10.63
2023-06-29T23:46:50.885Z,9.23
2023-06-29T23:49:21.561Z,8.82
2023-06-29T23:51:51.182Z,7.82
2023-06-29T23:54:17.936Z,8.95
2023-06-29T23:56:45.993Z,8.25
2023-06-29T23:59:12.519Z,7.68
